Time;durP1;ratioP1;P1;durP2;ratioP2;P2;SDS_P1;SDS_P2;PMS_P1;PMS_P2;Temp;Humidity;BMP_temperature;BMP_pressure;BME280_temperature;BME280_humidity;BME280_pressure;Samples;Min_cycle;Max_cycle;Signal;HPM_P1;HPM_P2
2022/10/17 00:01:05;;;;;;;57.00;34.47;;;12.00;99.90;;;;;;5029140;28;20080;-57
2022/10/17 00:03:31;;;;;;;57.80;34.15;;;12.00;99.90;;;;;;5029289;28;20013;-56
2022/10/17 00:05:57;;;;;;;67.53;34.97;;;12.00;99.90;;;;;;5011414;28;20388;-55
2022/10/17 00:08:22;;;;;;;53.00;31.08;;;11.90;99.90;;;;;;5029239;28;20029;-56
2022/10/17 00:10:57;;;;;;;54.90;32.45;;;11.90;99.90;;;;;;5028179;28;20350;-57
2022/10/17 00:13:23;;;;;;;71.93;35.40;;;11.80;99.90;;;;;;5029184;28;20067;-56
2022/10/17 00:15:48;;;;;;;58.72;33.75;;;11.80;99.90;;;;;;5029041;28;20080;-56
2022/10/17 00:18:14;;;;;;;50.45;29.17;;;11.80;99.90;;;;;;5029405;28;20037;-55
2022/10/17 00:20:39;;;;;;;42.85;27.30;;;11.90;99.90;;;;;;5029184;28;20033;-55
2022/10/17 00:23:05;;;;;;;44.80;27.08;;;11.80;99.90;;;;;;5028903;28;20705;-57
2022/10/17 00:25:31;;;;;;;43.97;26.40;;;11.80;99.90;;;;;;5028928;28;20065;-58
2022/10/17 00:27:56;;;;;;;54.58;31.95;;;11.80;99.90;;;;;;5029212;28;20121;-56
2022/10/17 00:30:22;;;;;;;45.08;27.13;;;11.70;99.90;;;;;;5029296;28;20104;-54
2022/10/17 00:32:47;;;;;;;54.58;29.98;;;11.70;99.90;;;;;;5029044;28;20405;-55
2022/10/17 00:35:13;;;;;;;53.05;30.52;;;11.70;99.90;;;;;;5028771;28;20447;-56
2022/10/17 00:37:39;;;;;;;44.15;27.25;;;11.70;99.90;;;;;;5028967;28;20022;-58
2022/10/17 00:40:05;;;;;;;47.85;27.77;;;11.80;99.90;;;;;;5028809;28;20572;-58
2022/10/17 00:42:31;;;;;;;48.55;27.05;;;11.70;99.90;;;;;;5028919;28;20080;-55
2022/10/17 00:45:21;;;;;;;43.88;26.23;;;11.70;99.90;;;;;;5028783;28;20489;-55
2022/10/17 00:48:07;;;;;;;41.95;25.20;;;11.60;99.90;;;;;;5028859;28;20029;-58
2022/10/17 00:50:35;;;;;;;46.17;25.55;;;11.60;99.90;;;;;;5000857;28;20034;-56
2022/10/17 00:53:01;;;;;;;;;;;11.60;99.90;;;;;;5015832;28;20101;-54
2022/10/17 00:55:31;;;;;;;48.42;23.25;;;11.50;99.90;;;;;;5048570;28;19919;-58
2022/10/17 00:58:01;;;;;;;42.00;21.70;;;11.50;99.90;;;;;;5048626;28;20024;-58
2022/10/17 01:00:27;;;;;;;32.30;22.08;;;11.40;99.90;;;;;;5048311;28;20036;-56
2022/10/17 01:02:53;;;;;;;41.78;22.63;;;11.40;99.90;;;;;;5048569;28;20362;-58
2022/10/17 01:05:19;;;;;;;40.65;24.73;;;11.40;99.90;;;;;;5048556;28;20036;-58
2022/10/17 01:07:47;;;;;;;36.38;24.17;;;11.30;99.90;;;;;;5048527;28;20032;-55
2022/10/17 01:10:14;;;;;;;38.33;22.95;;;11.30;99.90;;;;;;5048605;28;20033;-54
2022/10/17 01:12:45;;;;;;;34.88;22.58;;;11.30;99.90;;;;;;5048354;28;20127;-56
2022/10/17 01:15:19;;;;;;;45.78;24.45;;;11.30;99.90;;;;;;5048340;28;20053;-56
2022/10/17 01:17:55;;;;;;;36.47;23.40;;;11.20;99.90;;;;;;5030512;28;20036;-56
2022/10/17 01:20:53;;;;;;;41.67;24.75;;;11.20;99.90;;;;;;5048319;28;20017;-58
2022/10/17 01:23:31;;;;;;;39.40;25.15;;;11.20;99.90;;;;;;5016640;28;20037;-57
2022/10/17 01:26:11;;;;;;;44.50;25.38;;;11.10;99.90;;;;;;5052102;28;20063;-58
2022/10/17 01:28:43;;;;;;;42.05;24.00;;;11.10;99.90;;;;;;5052073;28;20029;-58
2022/10/17 01:31:14;;;;;;;45.58;26.80;;;11.10;99.90;;;;;;5052157;28;20100;-59
2022/10/17 01:33:48;;;;;;;47.95;25.25;;;11.00;99.90;;;;;;5051664;28;20423;-54
2022/10/17 01:36:22;;;;;;;48.95;28.02;;;11.00;99.90;;;;;;5051951;28;20044;-59
2022/10/17 01:38:52;;;;;;;42.28;24.88;;;11.00;99.90;;;;;;5051837;28;20028;-58
2022/10/17 01:41:20;;;;;;;40.38;24.38;;;11.00;99.90;;;;;;5051789;28;20127;-57
2022/10/17 01:43:54;;;;;;;44.40;25.17;;;11.00;99.90;;;;;;5051606;28;20159;-54
2022/10/17 01:46:34;;;;;;;46.45;25.02;;;10.90;99.90;;;;;;5051718;28;20122;-58
2022/10/17 01:49:01;;;;;;;41.65;23.85;;;10.90;99.90;;;;;;5051799;28;20063;-56
2022/10/17 01:51:41;;;;;;;43.00;23.20;;;10.90;99.90;;;;;;5047611;28;20549;-58
2022/10/17 01:54:12;;;;;;;41.80;23.90;;;10.70;99.90;;;;;;5035530;28;20369;-57
2022/10/17 01:56:40;;;;;;;34.03;21.13;;;10.80;99.90;;;;;;5033823;28;20547;-58
2022/10/17 01:59:21;;;;;;;36.40;22.00;;;10.80;99.90;;;;;;5039631;28;20025;-57
2022/10/17 02:01:50;;;;;;;43.30;25.85;;;10.70;99.90;;;;;;5051220;28;20097;-56
2022/10/17 02:04:16;;;;;;;45.30;26.70;;;10.70;99.90;;;;;;5051134;28;20037;-55
2022/10/17 02:06:41;;;;;;;52.80;27.63;;;10.70;99.90;;;;;;5051310;28;20021;-56
2022/10/17 02:09:34;;;;;;;48.25;28.10;;;10.70;99.90;;;;;;5033018;28;20111;-56
2022/10/17 02:12:19;;;;;;;45.70;27.45;;;10.70;99.90;;;;;;5035823;28;20038;-54
2022/10/17 02:15:07;;;;;;;48.97;27.27;;;10.70;99.90;;;;;;5031164;28;20036;-60
2022/10/17 02:17:51;;;;;;;;;;;10.70;99.90;;;;;;5030990;28;20081;-59
2022/10/17 02:20:20;;;;;;;45.65;25.00;;;10.70;99.90;;;;;;5031115;28;20390;-57
2022/10/17 02:23:08;;;;;;;43.95;25.33;;;10.60;99.90;;;;;;5030900;28;20072;-60
2022/10/17 02:25:33;;;;;;;43.08;24.63;;;10.50;99.90;;;;;;5030981;28;20030;-55
2022/10/17 02:28:21;;;;;;;47.83;26.58;;;10.50;99.90;;;;;;5030761;28;20071;-56
2022/10/17 02:30:56;;;;;;;44.60;25.02;;;10.50;99.90;;;;;;5030860;28;20104;-59
2022/10/17 02:33:40;;;;;;;46.92;25.30;;;10.50;99.90;;;;;;5030166;28;20060;-55
2022/10/17 02:36:13;;;;;;;45.60;25.83;;;10.50;99.90;;;;;;5030846;28;20029;-54
2022/10/17 02:38:41;;;;;;;38.63;24.88;;;10.40;99.90;;;;;;5030521;28;20044;-57
2022/10/17 02:41:09;;;;;;;;;;;10.40;99.90;;;;;;5031150;28;20018;-59
2022/10/17 02:43:36;;;;;;;42.10;23.50;;;10.40;99.90;;;;;;5030378;28;20313;-59
2022/10/17 02:46:03;;;;;;;45.25;23.20;;;10.30;99.90;;;;;;5030550;28;20692;-59
2022/10/17 02:48:46;;;;;;;37.17;22.17;;;10.30;99.90;;;;;;5041662;28;20056;-56
2022/10/17 02:51:52;;;;;;;37.25;21.40;;;10.40;99.90;;;;;;5050426;28;20040;-59
2022/10/17 02:54:38;;;;;;;37.45;22.25;;;10.50;99.90;;;;;;4988512;28;20053;-57
2022/10/17 02:57:12;;;;;;;34.70;20.48;;;10.60;99.90;;;;;;5045935;28;20029;-58
2022/10/17 02:59:41;;;;;;;36.67;20.08;;;10.50;99.90;;;;;;5050128;28;20041;-56
2022/10/17 03:02:06;;;;;;;38.22;21.58;;;10.40;99.90;;;;;;5050040;28;20048;-59
2022/10/17 03:04:33;;;;;;;39.08;22.65;;;10.30;99.90;;;;;;5050181;28;20385;-58
2022/10/17 03:06:59;;;;;;;39.38;21.95;;;10.30;99.90;;;;;;5050179;28;20155;-59
2022/10/17 03:09:25;;;;;;;37.13;20.88;;;10.30;99.90;;;;;;5049968;28;20502;-59
2022/10/17 03:11:50;;;;;;;30.58;18.58;;;10.30;99.90;;;;;;5049784;28;20028;-59
2022/10/17 03:14:16;;;;;;;31.70;18.90;;;10.30;99.90;;;;;;5050131;28;20041;-58
2022/10/17 03:16:41;;;;;;;33.65;19.42;;;10.30;99.90;;;;;;5049804;28;20472;-55
2022/10/17 03:19:07;;;;;;;32.72;19.77;;;10.20;99.90;;;;;;5050090;28;20036;-55
2022/10/17 03:21:35;;;;;;;33.20;20.02;;;10.20;99.90;;;;;;5049942;28;20110;-54
2022/10/17 03:24:01;;;;;;;37.38;22.70;;;10.20;99.90;;;;;;5049672;28;20033;-56
2022/10/17 03:26:28;;;;;;;42.83;26.77;;;10.10;99.90;;;;;;5048150;28;20025;-55
2022/10/17 03:28:54;;;;;;;46.55;28.90;;;10.00;99.90;;;;;;5031738;28;20087;-58
2022/10/17 03:31:20;;;;;;;39.70;24.20;;;10.10;99.90;;;;;;5049619;28;20428;-59
2022/10/17 03:33:45;;;;;;;40.00;23.58;;;10.10;99.90;;;;;;5049631;28;20067;-58
2022/10/17 03:36:14;;;;;;;40.85;24.83;;;10.10;99.90;;;;;;5049639;28;20029;-58
2022/10/17 03:38:40;;;;;;;45.17;24.33;;;10.10;99.90;;;;;;5049563;28;20029;-60
2022/10/17 03:41:06;;;;;;;44.88;24.70;;;10.10;99.90;;;;;;5049215;28;20381;-58
2022/10/17 03:43:32;;;;;;;50.33;28.90;;;10.10;99.90;;;;;;5049479;28;20078;-55
2022/10/17 03:45:59;;;;;;;57.15;33.13;;;10.00;99.90;;;;;;5048588;28;20041;-55
2022/10/17 03:48:25;;;;;;;59.70;33.20;;;9.90;99.90;;;;;;5038750;28;20511;-58
2022/10/17 03:50:51;;;;;;;49.95;28.17;;;9.90;99.90;;;;;;5029734;28;20037;-59
2022/10/17 03:53:17;;;;;;;40.60;24.33;;;9.90;99.90;;;;;;5029356;28;20041;-59
2022/10/17 03:55:43;;;;;;;39.10;21.90;;;9.90;99.90;;;;;;5029582;28;20358;-59
2022/10/17 03:58:08;;;;;;;42.30;24.48;;;9.90;99.90;;;;;;5029358;28;20032;-58
2022/10/17 04:00:35;;;;;;;39.30;22.83;;;9.90;99.90;;;;;;5029392;28;20033;-58
2022/10/17 04:03:01;;;;;;;39.43;23.10;;;10.00;99.90;;;;;;5029304;28;20093;-59
2022/10/17 04:05:26;;;;;;;39.80;25.27;;;10.10;99.90;;;;;;5029273;28;20945;-58
2022/10/17 04:07:52;;;;;;;35.25;23.23;;;10.20;99.90;;;;;;5029274;28;20465;-57
2022/10/17 04:10:18;;;;;;;36.20;22.98;;;10.10;99.90;;;;;;5029107;28;20114;-56
2022/10/17 04:12:43;;;;;;;32.35;20.52;;;10.20;99.90;;;;;;5028821;28;20034;-54
2022/10/17 04:15:09;;;;;;;36.80;21.65;;;10.10;99.90;;;;;;5029017;28;20025;-54
2022/10/17 04:17:35;;;;;;;45.50;22.80;;;10.20;99.90;;;;;;5011411;28;20029;-54
2022/10/17 04:20:01;;;;;;;36.13;21.45;;;10.10;99.90;;;;;;5029159;28;20022;-57
2022/10/17 04:22:26;;;;;;;30.58;19.55;;;10.10;99.90;;;;;;5028948;28;20392;-58
2022/10/17 04:24:52;;;;;;;33.08;18.80;;;10.10;99.90;;;;;;5029050;28;20059;-58
2022/10/17 04:27:18;;;;;;;32.67;18.08;;;10.00;99.90;;;;;;5029110;28;20083;-57
2022/10/17 04:29:43;;;;;;;27.17;17.73;;;9.90;99.90;;;;;;5029036;28;20476;-58
2022/10/17 04:32:09;;;;;;;28.38;18.63;;;9.80;99.90;;;;;;5028982;28;20033;-54
2022/10/17 04:34:35;;;;;;;34.78;18.65;;;9.90;99.90;;;;;;5011515;28;20048;-54
2022/10/17 04:37:01;;;;;;;26.30;17.60;;;9.90;99.90;;;;;;5027897;28;20028;-56
2022/10/17 04:39:27;;;;;;;30.73;19.05;;;9.80;99.90;;;;;;5028941;28;20038;-53
2022/10/17 04:41:52;;;;;;;36.38;22.60;;;9.70;99.90;;;;;;5028944;28;20044;-55
2022/10/17 04:44:19;;;;;;;35.35;22.05;;;9.70;99.90;;;;;;5028913;28;20029;-55
2022/10/17 04:46:45;;;;;;;40.13;24.75;;;9.70;99.90;;;;;;5028786;28;20026;-58
2022/10/17 04:49:11;;;;;;;40.78;26.83;;;9.60;99.90;;;;;;5037369;28;20048;-57
2022/10/17 04:51:37;;;;;;;48.83;29.52;;;9.60;99.90;;;;;;5048690;28;20017;-54
2022/10/17 04:54:03;;;;;;;45.67;29.58;;;9.60;99.90;;;;;;5048560;28;20051;-59
2022/10/17 04:56:28;;;;;;;43.17;28.38;;;9.50;99.90;;;;;;5049260;28;20460;-58
2022/10/17 04:58:54;;;;;;;47.33;28.40;;;9.60;99.90;;;;;;5052386;28;20377;-54
2022/10/17 05:01:21;;;;;;;49.17;25.85;;;9.50;99.90;;;;;;5052402;28;20131;-55
2022/10/17 05:03:47;;;;;;;43.67;27.02;;;9.50;99.90;;;;;;5052545;28;20029;-57
2022/10/17 05:06:19;;;;;;;45.60;27.58;;;9.50;99.90;;;;;;5052465;28;20085;-57
2022/10/17 05:08:46;;;;;;;37.08;24.80;;;9.50;99.90;;;;;;5052195;28;20025;-56
2022/10/17 05:11:26;;;;;;;39.47;24.10;;;9.50;99.90;;;;;;5052408;28;20424;-56
2022/10/17 05:13:57;;;;;;;43.88;25.77;;;9.50;99.90;;;;;;5052364;28;20083;-56
2022/10/17 05:16:23;;;;;;;45.42;26.52;;;9.60;99.90;;;;;;5052036;28;20051;-58
2022/10/17 05:18:51;;;;;;;41.30;26.60;;;9.60;99.90;;;;;;5034353;28;20057;-59
2022/10/17 05:21:17;;;;;;;44.35;26.23;;;9.50;99.90;;;;;;5052273;28;20029;-59
2022/10/17 05:23:42;;;;;;;41.10;24.98;;;9.60;99.90;;;;;;5052110;28;20538;-58
2022/10/17 05:26:08;;;;;;;40.45;26.13;;;9.60;99.90;;;;;;5052056;28;20057;-57
2022/10/17 05:28:34;;;;;;;41.63;25.95;;;9.60;99.90;;;;;;5050370;28;20025;-55
2022/10/17 05:31:04;;;;;;;45.50;27.60;;;9.50;99.90;;;;;;5052116;28;20036;-53
2022/10/17 05:33:29;;;;;;;43.08;25.38;;;9.50;99.90;;;;;;5046062;28;20044;-56
2022/10/17 05:35:55;;;;;;;39.45;23.88;;;9.60;99.90;;;;;;5032041;28;20681;-55
2022/10/17 05:38:21;;;;;;;39.03;24.35;;;9.50;99.90;;;;;;5031931;28;20033;-55
2022/10/17 05:40:46;;;;;;;40.28;25.35;;;9.50;99.90;;;;;;5031876;28;20025;-57
2022/10/17 05:43:13;;;;;;;41.45;24.88;;;9.50;99.90;;;;;;5031835;28;20052;-60
2022/10/17 05:45:39;;;;;;;42.45;25.88;;;9.60;99.90;;;;;;5031587;28;20116;-54
2022/10/17 05:48:05;;;;;;;37.92;24.65;;;9.50;99.90;;;;;;5031607;28;20431;-58
2022/10/17 05:50:31;;;;;;;39.90;25.10;;;9.60;99.90;;;;;;5051425;28;20029;-55
2022/10/17 05:52:57;;;;;;;47.00;29.30;;;9.50;99.90;;;;;;5051333;28;20040;-58
2022/10/17 05:55:23;;;;;;;47.88;30.73;;;9.60;99.90;;;;;;5051547;28;20051;-55
2022/10/17 05:57:51;;;;;;;59.75;35.08;;;9.60;99.90;;;;;;5051435;28;20029;-57
2022/10/17 06:00:17;;;;;;;62.58;37.03;;;9.60;99.90;;;;;;5051202;28;20025;-58
2022/10/17 06:02:44;;;;;;;67.35;40.90;;;9.60;99.90;;;;;;5051268;28;20033;-57
2022/10/17 06:05:11;;;;;;;66.97;43.20;;;9.60;99.90;;;;;;5051461;28;20626;-56
2022/10/17 06:07:36;;;;;;;72.43;44.22;;;9.70;99.90;;;;;;5050904;28;20469;-59
2022/10/17 06:10:02;;;;;;;73.53;43.55;;;9.80;99.90;;;;;;5050279;28;20056;-57
2022/10/17 06:12:28;;;;;;;82.75;49.92;;;9.90;99.90;;;;;;5051128;28;20116;-57
2022/10/17 06:14:54;;;;;;;73.93;43.95;;;10.00;99.90;;;;;;5050514;28;20114;-55
2022/10/17 06:17:19;;;;;;;79.05;49.60;;;10.10;99.90;;;;;;5045083;28;20148;-55
2022/10/17 06:19:45;;;;;;;78.30;49.65;;;10.10;99.90;;;;;;5030053;28;20060;-57
2022/10/17 06:22:10;;;;;;;88.57;56.08;;;10.30;99.90;;;;;;5026716;28;20033;-59
2022/10/17 06:24:36;;;;;;;87.00;48.53;;;10.30;99.90;;;;;;5038890;28;20477;-59
2022/10/17 06:27:02;;;;;;;89.95;48.17;;;10.40;99.90;;;;;;5050682;28;20078;-58
2022/10/17 06:29:28;;;;;;;62.97;38.63;;;10.40;99.90;;;;;;5050290;28;20045;-58
2022/10/17 06:31:54;;;;;;;60.38;35.78;;;10.50;99.90;;;;;;5041743;28;20038;-60
2022/10/17 06:34:21;;;;;;;57.47;34.03;;;10.60;99.90;;;;;;5030986;28;20521;-61
2022/10/17 06:36:47;;;;;;;52.83;33.65;;;10.70;99.90;;;;;;5014470;28;20389;-56
2022/10/17 06:39:13;;;;;;;53.53;33.72;;;10.90;99.90;;;;;;5030068;28;20029;-55
2022/10/17 06:41:40;;;;;;;57.45;34.70;;;11.00;99.90;;;;;;5030262;28;20472;-57
2022/10/17 06:44:09;;;;;;;52.65;35.83;;;11.00;99.90;;;;;;5029528;28;20034;-62
2022/10/17 06:46:36;;;;;;;57.08;36.33;;;11.10;99.90;;;;;;5030050;28;20115;-61
2022/10/17 06:49:03;;;;;;;52.93;35.37;;;11.30;99.90;;;;;;5028323;28;20049;-60
2022/10/17 06:51:29;;;;;;;52.58;33.15;;;11.40;99.90;;;;;;5028621;28;20115;-60
2022/10/17 06:53:57;;;;;;;50.88;31.77;;;11.50;99.90;;;;;;5029963;28;20041;-61
2022/10/17 06:56:23;;;;;;;57.88;31.27;;;11.70;99.90;;;;;;5040389;28;20040;-60
2022/10/17 06:58:50;;;;;;;52.70;32.90;;;11.80;99.90;;;;;;5038946;28;20029;-61
2022/10/17 07:01:16;;;;;;;54.45;32.75;;;11.90;99.90;;;;;;5038420;28;20044;-56
2022/10/17 07:03:42;;;;;;;54.83;32.85;;;12.10;99.90;;;;;;5027838;28;20108;-55
2022/10/17 07:06:12;;;;;;;45.08;26.98;;;12.20;99.90;;;;;;5026523;28;20037;-58
2022/10/17 07:08:41;;;;;;;47.40;30.17;;;12.30;99.90;;;;;;5026220;28;20053;-57
2022/10/17 07:11:12;;;;;;;47.03;28.88;;;12.50;99.90;;;;;;5026962;28;20037;-55
2022/10/17 07:13:38;;;;;;;50.70;31.25;;;12.80;99.90;;;;;;5029498;28;20102;-63
2022/10/17 07:16:04;;;;;;;42.95;26.40;;;12.90;99.90;;;;;;5029100;28;20404;-63
2022/10/17 07:18:30;;;;;;;40.47;22.73;;;13.10;99.90;;;;;;5029250;28;20026;-62
2022/10/17 07:20:55;;;;;;;35.78;21.05;;;13.30;99.90;;;;;;5029111;28;20036;-60
2022/10/17 07:23:22;;;;;;;31.65;20.08;;;13.70;99.90;;;;;;5029481;28;20025;-60
2022/10/17 07:25:48;;;;;;;28.73;18.70;;;14.20;99.90;;;;;;5029409;28;20078;-62
2022/10/17 07:28:14;;;;;;;31.65;18.50;;;14.80;99.90;;;;;;5027532;28;20025;-62
2022/10/17 07:30:40;;;;;;;26.95;17.50;;;15.20;99.90;;;;;;5028936;28;20158;-57
2022/10/17 07:33:05;;;;;;;33.25;17.60;;;15.70;99.90;;;;;;5028891;28;20451;-62
2022/10/17 07:35:31;;;;;;;27.35;17.42;;;15.80;99.90;;;;;;5011173;28;20029;-59
2022/10/17 07:37:57;;;;;;;30.02;16.50;;;16.00;99.90;;;;;;5028636;28;20731;-60
2022/10/17 07:40:24;;;;;;;26.17;16.75;;;16.90;99.90;;;;;;5010917;28;20472;-59
2022/10/17 07:42:50;;;;;;;27.05;15.90;;;17.20;99.90;;;;;;5028685;28;20037;-55
2022/10/17 07:45:15;;;;;;;27.10;15.80;;;17.20;99.90;;;;;;5027420;28;20553;-55
2022/10/17 07:47:41;;;;;;;31.80;15.18;;;17.40;99.90;;;;;;5028360;28;20037;-57
2022/10/17 07:50:07;;;;;;;26.02;15.38;;;17.80;99.90;;;;;;5028573;28;20025;-61
2022/10/17 07:52:33;;;;;;;28.48;16.63;;;17.30;99.90;;;;;;5027426;28;20045;-58
2022/10/17 07:54:58;;;;;;;25.67;14.60;;;17.70;99.90;;;;;;5027891;28;20571;-60
2022/10/17 07:57:24;;;;;;;28.40;16.25;;;17.00;99.90;;;;;;5027522;28;20079;-59
2022/10/17 07:59:50;;;;;;;22.20;14.25;;;17.40;99.90;;;;;;5027517;28;20164;-59
2022/10/17 08:02:24;;;;;;;26.35;15.32;;;17.30;99.90;;;;;;5027539;28;20045;-59
2022/10/17 08:04:53;;;;;;;31.77;14.60;;;17.80;99.90;;;;;;5027740;28;20479;-60
2022/10/17 08:07:20;;;;;;;25.73;14.70;;;18.00;99.90;;;;;;5027799;28;20084;-59
2022/10/17 08:09:46;;;;;;;25.30;14.25;;;17.80;99.90;;;;;;5027619;28;20025;-59
2022/10/17 08:12:15;;;;;;;28.88;13.73;;;18.40;99.90;;;;;;5025214;28;20049;-59
2022/10/17 08:14:42;;;;;;;24.58;14.20;;;18.50;99.90;;;;;;5028371;28;20033;-59
2022/10/17 08:17:08;;;;;;;25.38;14.57;;;18.00;99.90;;;;;;5028768;28;20398;-54
2022/10/17 08:19:37;;;;;;;26.52;14.40;;;18.20;99.90;;;;;;5028854;28;20029;-55
2022/10/17 08:22:03;;;;;;;22.58;13.23;;;18.00;99.90;;;;;;5034721;28;20013;-54
2022/10/17 08:24:29;;;;;;;19.60;13.07;;;17.90;99.90;;;;;;5028982;28;20040;-57
2022/10/17 08:26:57;;;;;;;24.00;13.07;;;18.10;99.90;;;;;;5028372;28;20079;-58
2022/10/17 08:29:22;;;;;;;19.52;11.85;;;18.30;99.90;;;;;;5028815;28;20040;-59
2022/10/17 08:31:48;;;;;;;19.27;12.13;;;18.00;99.90;;;;;;5029948;28;20021;-58
2022/10/17 08:34:14;;;;;;;17.60;11.98;;;17.80;99.90;;;;;;5033005;28;20679;-58
2022/10/17 08:36:40;;;;;;;26.73;13.93;;;17.80;99.90;;;;;;5032117;28;20030;-58
2022/10/17 08:39:06;;;;;;;19.58;12.07;;;18.10;99.90;;;;;;5031500;28;20536;-58
2022/10/17 08:41:54;;;;;;;17.92;11.73;;;18.20;99.90;;;;;;5031796;28;20752;-58
2022/10/17 08:44:41;;;;;;;23.92;12.30;;;18.70;99.90;;;;;;5031737;28;20052;-54
2022/10/17 08:47:15;;;;;;;20.05;11.40;;;18.50;99.90;;;;;;5028501;28;20018;-58
2022/10/17 08:49:58;;;;;;;21.73;12.07;;;19.30;99.90;;;;;;4994949;28;20598;-57
2022/10/17 08:53:04;;;;;;;19.90;11.00;;;18.90;99.90;;;;;;5028138;28;20105;-59
2022/10/17 08:55:40;;;;;;;27.05;11.65;;;19.00;99.90;;;;;;5021133;28;20046;-57
2022/10/17 08:58:31;;;;;;;19.05;11.10;;;19.90;99.90;;;;;;5029127;28;20022;-56
2022/10/17 09:01:09;;;;;;;18.38;10.00;;;19.10;99.90;;;;;;5030717;28;20057;-57
2022/10/17 09:04:03;;;;;;;18.10;11.10;;;20.50;99.90;;;;;;5024682;28;20029;-57
2022/10/17 09:06:44;;;;;;;19.65;10.27;;;19.10;99.90;;;;;;5029386;28;20037;-58
2022/10/17 09:09:33;;;;;;;17.63;11.00;;;19.30;99.90;;;;;;5030931;28;20099;-58
2022/10/17 09:12:44;;;;;;;17.15;9.15;;;19.30;99.90;;;;;;5032062;28;20830;-56
2022/10/17 09:15:28;;;;;;;18.88;10.52;;;19.70;99.90;;;;;;5008685;28;20044;-58
2022/10/17 09:17:59;;;;;;;24.00;11.05;;;20.70;99.90;;;;;;5032143;28;20021;-56
2022/10/17 09:20:30;;;;;;;16.52;9.55;;;19.80;99.90;;;;;;5032197;28;20080;-58
2022/10/17 09:22:56;;;;;;;17.67;10.13;;;20.90;99.90;;;;;;5031757;28;20087;-58
2022/10/17 09:25:22;;;;;;;16.98;10.50;;;20.00;99.90;;;;;;5031973;28;20037;-57
2022/10/17 09:27:52;;;;;;;19.48;9.98;;;20.40;99.90;;;;;;5032019;28;20035;-57
2022/10/17 09:30:27;;;;;;;13.82;9.90;;;21.30;99.80;;;;;;5014057;28;20501;-57
2022/10/17 09:32:53;;;;;;;17.05;10.40;;;21.50;99.40;;;;;;5031994;28;20041;-56
2022/10/17 09:35:20;;;;;;;15.65;9.38;;;22.60;96.40;;;;;;5031654;28;20556;-57
2022/10/17 09:37:48;;;;;;;16.73;9.63;;;23.60;93.10;;;;;;5031305;28;20108;-57
2022/10/17 09:40:40;;;;;;;17.77;10.13;;;23.00;91.60;;;;;;5032019;28;20025;-55
2022/10/17 09:43:09;;;;;;;18.00;9.40;;;22.20;92.70;;;;;;5028570;28;20077;-58
2022/10/17 09:45:46;;;;;;;17.70;9.75;;;22.30;92.10;;;;;;5031784;28;20029;-58
2022/10/17 09:48:36;;;;;;;15.40;9.13;;;21.90;91.50;;;;;;5031669;28;20083;-56
2022/10/17 09:51:04;;;;;;;17.63;9.52;;;22.00;92.50;;;;;;5022516;28;20493;-56
2022/10/17 09:53:35;;;;;;;19.42;10.45;;;21.70;91.40;;;;;;5030856;28;20132;-57
2022/10/17 09:56:06;;;;;;;12.60;8.70;;;21.60;90.70;;;;;;5030660;28;20077;-58
2022/10/17 09:58:44;;;;;;;15.52;8.98;;;21.70;90.80;;;;;;5029927;28;20435;-58
2022/10/17 10:01:17;;;;;;;;;;;22.00;91.80;;;;;;5027955;28;20564;-59
2022/10/17 10:03:43;;;;;;;16.23;8.73;;;22.10;91.50;;;;;;5029986;28;19908;-58
2022/10/17 10:06:19;;;;;;;14.30;8.50;;;22.70;91.00;;;;;;5030143;28;20033;-58
2022/10/17 10:08:57;;;;;;;16.13;9.13;;;22.30;90.50;;;;;;5030781;28;20116;-56
2022/10/17 10:11:42;;;;;;;12.70;7.72;;;22.70;89.30;;;;;;5046337;28;20026;-56
2022/10/17 10:14:18;;;;;;;14.98;8.63;;;22.40;89.30;;;;;;5008176;28;20528;-58
2022/10/17 10:16:46;;;;;;;12.52;8.38;;;22.30;87.20;;;;;;5006614;28;20021;-57
2022/10/17 10:19:33;;;;;;;18.88;8.50;;;22.50;90.00;;;;;;5032973;28;20047;-57
2022/10/17 10:22:05;;;;;;;18.58;8.50;;;22.80;89.40;;;;;;5032063;28;20033;-56
2022/10/17 10:24:31;;;;;;;21.50;9.38;;;22.70;86.90;;;;;;5030512;28;20509;-56
2022/10/17 10:27:00;;;;;;;16.93;8.63;;;22.80;87.80;;;;;;5046033;28;20043;-55
2022/10/17 10:29:37;;;;;;;15.95;8.80;;;22.90;87.90;;;;;;5030783;28;20104;-58
2022/10/17 10:32:31;;;;;;;12.65;8.27;;;22.10;88.50;;;;;;5030521;28;20390;-57
2022/10/17 10:34:59;;;;;;;13.07;8.05;;;23.20;87.60;;;;;;5030859;28;20029;-57
2022/10/17 10:37:26;;;;;;;15.75;7.95;;;23.00;85.80;;;;;;5030590;28;20025;-58
2022/10/17 10:39:56;;;;;;;14.93;8.95;;;23.40;84.30;;;;;;5030203;28;20031;-57
2022/10/17 10:42:39;;;;;;;17.77;7.88;;;23.00;86.30;;;;;;5030463;28;20109;-55
2022/10/17 10:45:22;;;;;;;11.45;8.20;;;22.80;86.80;;;;;;5012698;28;20048;-56
2022/10/17 10:48:05;;;;;;;14.73;8.98;;;23.50;86.50;;;;;;5030212;28;20075;-58
2022/10/17 10:50:48;;;;;;;12.80;7.35;;;23.40;85.50;;;;;;5030644;28;20026;-55
2022/10/17 10:53:58;;;;;;;12.35;8.02;;;23.00;82.70;;;;;;5030278;28;20656;-58
2022/10/17 10:56:43;;;;;;;13.85;7.55;;;22.20;87.60;;;;;;5030427;28;20025;-58
2022/10/17 10:59:19;;;;;;;13.95;7.95;;;22.10;87.70;;;;;;5030354;28;20795;-58
2022/10/17 11:01:57;;;;;;;14.95;7.50;;;22.60;88.10;;;;;;5012119;28;20088;-58
2022/10/17 11:04:45;;;;;;;;;;;23.00;86.00;;;;;;5030794;28;20029;-56
2022/10/17 11:07:16;;;;;;;14.80;9.25;;;22.80;87.30;;;;;;4992654;28;19908;-56
2022/10/17 11:10:15;;;;;;;14.15;7.90;;;22.60;85.10;;;;;;5029713;28;20036;-58
2022/10/17 11:12:47;;;;;;;15.45;8.43;;;23.30;86.00;;;;;;5030164;28;20033;-56
2022/10/17 11:15:28;;;;;;;13.32;7.93;;;23.30;84.70;;;;;;5030059;28;20033;-58
2022/10/17 11:18:03;;;;;;;13.30;7.50;;;23.50;83.30;;;;;;5029593;28;20029;-58
2022/10/17 11:20:57;;;;;;;14.05;7.10;;;23.00;83.90;;;;;;5029994;28;20121;-58
2022/10/17 11:23:40;;;;;;;12.45;7.65;;;23.50;82.10;;;;;;5030207;28;20776;-58
2022/10/17 11:26:12;;;;;;;15.25;8.18;;;23.30;82.40;;;;;;5008623;28;20378;-57
2022/10/17 11:28:37;;;;;;;10.90;7.22;;;23.60;81.30;;;;;;5010059;28;20018;-59
2022/10/17 11:31:07;;;;;;;14.27;7.35;;;23.60;83.80;;;;;;5009814;28;20033;-58
2022/10/17 11:33:47;;;;;;;17.45;7.60;;;23.00;80.90;;;;;;5009680;28;20530;-55
2022/10/17 11:36:17;;;;;;;11.50;6.85;;;23.30;83.10;;;;;;5009698;28;20397;-60
2022/10/17 11:38:54;;;;;;;12.77;6.70;;;23.20;81.70;;;;;;5010655;28;20038;-56
2022/10/17 11:41:28;;;;;;;13.90;7.22;;;23.10;82.20;;;;;;5029804;28;20021;-57
2022/10/17 11:43:59;;;;;;;12.05;7.90;;;23.30;83.30;;;;;;5029364;28;20022;-59
2022/10/17 11:46:27;;;;;;;12.75;7.13;;;23.50;82.60;;;;;;5029251;28;20029;-57
2022/10/17 11:48:58;;;;;;;12.70;8.18;;;23.50;81.80;;;;;;5029391;28;20056;-55
2022/10/17 11:51:24;;;;;;;13.63;7.43;;;23.20;81.90;;;;;;5030005;28;20038;-59
2022/10/17 11:54:03;;;;;;;12.15;7.53;;;23.40;82.10;;;;;;5029298;28;20041;-59
2022/10/17 11:56:33;;;;;;;12.18;7.03;;;23.50;82.10;;;;;;5029536;28;20033;-58
2022/10/17 11:59:28;;;;;;;14.02;8.07;;;23.70;82.20;;;;;;5028932;28;20068;-55
2022/10/17 12:02:03;;;;;;;15.15;7.28;;;23.70;82.20;;;;;;5027901;28;20191;-55
2022/10/17 12:05:03;;;;;;;11.20;7.35;;;23.90;81.90;;;;;;5029202;28;20033;-55
2022/10/17 12:07:40;;;;;;;14.07;6.68;;;23.90;80.80;;;;;;5028007;28;20044;-57
2022/10/17 12:10:38;;;;;;;12.90;7.35;;;24.20;80.00;;;;;;5029068;28;20029;-57
2022/10/17 12:13:32;;;;;;;27.58;7.80;;;25.00;77.70;;;;;;4995018;28;20079;-56
2022/10/17 12:16:20;;;;;;;12.00;7.85;;;26.60;72.20;;;;;;5024529;28;20029;-57
2022/10/17 12:19:08;;;;;;;9.93;6.45;;;26.90;69.80;;;;;;5019438;28;20493;-58
2022/10/17 12:22:04;;;;;;;14.47;7.97;;;26.10;71.70;;;;;;5018310;28;20427;-58
2022/10/17 12:24:57;;;;;;;12.35;7.25;;;25.40;73.60;;;;;;5028823;28;20061;-58
2022/10/17 12:27:44;;;;;;;18.42;7.38;;;24.20;76.10;;;;;;5020303;28;20041;-55
2022/10/17 12:30:19;;;;;;;13.02;6.90;;;24.20;79.10;;;;;;5028951;28;20033;-59
2022/10/17 12:33:12;;;;;;;13.55;7.90;;;23.90;79.70;;;;;;5029050;28;20513;-57
2022/10/17 12:35:38;;;;;;;15.88;7.93;;;24.10;79.50;;;;;;5028940;28;20029;-55
2022/10/17 12:38:15;;;;;;;12.15;7.57;;;24.00;79.90;;;;;;5028875;28;20069;-55
2022/10/17 12:40:49;;;;;;;14.27;7.97;;;24.20;80.00;;;;;;5028453;28;20507;-57
2022/10/17 12:43:15;;;;;;;12.20;7.95;;;24.30;78.80;;;;;;5028641;28;20033;-57
2022/10/17 12:45:52;;;;;;;11.32;7.30;;;24.30;79.30;;;;;;5028566;28;20129;-57
2022/10/17 12:48:32;;;;;;;17.33;7.70;;;24.00;79.90;;;;;;5033150;28;20143;-56
2022/10/17 12:51:01;;;;;;;12.77;8.18;;;24.20;79.50;;;;;;5027261;28;20338;-59
2022/10/17 12:53:48;;;;;;;15.77;7.35;;;24.30;78.60;;;;;;5027599;28;20041;-56
2022/10/17 12:56:39;;;;;;;14.17;7.83;;;24.30;78.10;;;;;;5027276;28;20049;-56